sensor_id;sensor_type;location;lat;lon;timestamp;temperature;humidity
51908;DHT22;39320;53.214;6.556;2023-02-08T00:02:17;4.20;99.90
51908;DHT22;39320;53.214;6.556;2023-02-08T00:04:43;3.90;99.90
51908;DHT22;39320;53.214;6.556;2023-02-08T00:07:09;3.90;99.90
51908;DHT22;39320;53.214;6.556;2023-02-08T00:09:34;4.10;99.90
51908;DHT22;39320;53.214;6.556;2023-02-08T00:12:00;3.80;99.90
51908;DHT22;39320;53.214;6.556;2023-02-08T00:14:26;3.80;99.90
51908;DHT22;39320;53.214;6.556;2023-02-08T00:16:51;3.80;99.90
51908;DHT22;39320;53.214;6.556;2023-02-08T00:19:17;3.80;99.90
51908;DHT22;39320;53.214;6.556;2023-02-08T00:21:43;3.80;99.90
51908;DHT22;39320;53.214;6.556;2023-02-08T00:24:08;3.80;99.90
51908;DHT22;39320;53.214;6.556;2023-02-08T00:26:34;4.10;99.90
51908;DHT22;39320;53.214;6.556;2023-02-08T00:29:00;4.10;99.90
51908;DHT22;39320;53.214;6.556;2023-02-08T00:31:26;3.60;99.90
51908;DHT22;39320;53.214;6.556;2023-02-08T00:33:51;3.60;99.90
51908;DHT22;39320;53.214;6.556;2023-02-08T00:36:17;3.60;99.90
51908;DHT22;39320;53.214;6.556;2023-02-08T00:38:43;3.60;99.90
51908;DHT22;39320;53.214;6.556;2023-02-08T00:41:08;3.60;99.90
51908;DHT22;39320;53.214;6.556;2023-02-08T00:43:34;3.60;99.90
51908;DHT22;39320;53.214;6.556;2023-02-08T00:46:00;3.50;99.90
51908;DHT22;39320;53.214;6.556;2023-02-08T00:48:26;4.50;99.90
51908;DHT22;39320;53.214;6.556;2023-02-08T00:51:00;3.60;99.90
51908;DHT22;39320;53.214;6.556;2023-02-08T00:53:26;3.50;99.90
51908;DHT22;39320;53.214;6.556;2023-02-08T00:55:53;3.50;99.90
51908;DHT22;39320;53.214;6.556;2023-02-08T00:58:19;4.30;99.90
51908;DHT22;39320;53.214;6.556;2023-02-08T01:00:44;3.50;99.90
51908;DHT22;39320;53.214;6.556;2023-02-08T01:03:10;3.70;99.90
51908;DHT22;39320;53.214;6.556;2023-02-08T01:05:38;3.40;99.90
51908;DHT22;39320;53.214;6.556;2023-02-08T01:08:04;3.40;99.90
51908;DHT22;39320;53.214;6.556;2023-02-08T01:10:31;3.40;99.90
51908;DHT22;39320;53.214;6.556;2023-02-08T01:12:57;3.30;99.90
51908;DHT22;39320;53.214;6.556;2023-02-08T01:15:23;3.50;99.90
51908;DHT22;39320;53.214;6.556;2023-02-08T01:17:56;3.40;99.90
51908;DHT22;39320;53.214;6.556;2023-02-08T01:20:22;3.40;99.90
51908;DHT22;39320;53.214;6.556;2023-02-08T01:22:49;3.20;99.90
51908;DHT22;39320;53.214;6.556;2023-02-08T01:25:15;3.30;99.90
51908;DHT22;39320;53.214;6.556;2023-02-08T01:27:41;3.30;99.90
51908;DHT22;39320;53.214;6.556;2023-02-08T01:30:07;3.30;99.90
51908;DHT22;39320;53.214;6.556;2023-02-08T01:32:33;3.30;99.90
51908;DHT22;39320;53.214;6.556;2023-02-08T01:34:59;3.50;99.90
51908;DHT22;39320;53.214;6.556;2023-02-08T01:37:25;3.30;99.90
51908;DHT22;39320;53.214;6.556;2023-02-08T01:39:50;3.30;99.90
51908;DHT22;39320;53.214;6.556;2023-02-08T01:42:17;3.30;99.90
51908;DHT22;39320;53.214;6.556;2023-02-08T01:47:42;3.30;99.90
51908;DHT22;39320;53.214;6.556;2023-02-08T01:50:09;3.40;99.90
51908;DHT22;39320;53.214;6.556;2023-02-08T01:52:36;3.20;99.90
51908;DHT22;39320;53.214;6.556;2023-02-08T01:55:09;3.20;99.90
51908;DHT22;39320;53.214;6.556;2023-02-08T01:57:36;3.20;99.90
51908;DHT22;39320;53.214;6.556;2023-02-08T02:00:14;3.20;99.90
51908;DHT22;39320;53.214;6.556;2023-02-08T02:02:41;3.20;99.90
51908;DHT22;39320;53.214;6.556;2023-02-08T02:05:09;3.20;99.90
51908;DHT22;39320;53.214;6.556;2023-02-08T02:07:35;3.30;99.90
51908;DHT22;39320;53.214;6.556;2023-02-08T02:10:15;3.20;99.90
51908;DHT22;39320;53.214;6.556;2023-02-08T02:12:43;3.20;99.90
51908;DHT22;39320;53.214;6.556;2023-02-08T02:15:10;3.10;99.90
51908;DHT22;39320;53.214;6.556;2023-02-08T02:17:36;3.10;99.90
51908;DHT22;39320;53.214;6.556;2023-02-08T02:20:28;3.10;99.90
51908;DHT22;39320;53.214;6.556;2023-02-08T02:37:20;3.00;99.90
51908;DHT22;39320;53.214;6.556;2023-02-08T02:40:25;3.00;99.90
51908;DHT22;39320;53.214;6.556;2023-02-08T02:45:53;3.60;99.90
51908;DHT22;39320;53.214;6.556;2023-02-08T02:48:41;3.00;99.90
51908;DHT22;39320;53.214;6.556;2023-02-08T02:54:52;3.00;99.90
51908;DHT22;39320;53.214;6.556;2023-02-08T02:57:26;2.90;99.90
51908;DHT22;39320;53.214;6.556;2023-02-08T02:59:52;2.90;99.90
51908;DHT22;39320;53.214;6.556;2023-02-08T03:02:25;2.90;99.90
51908;DHT22;39320;53.214;6.556;2023-02-08T03:04:54;2.90;99.90
51908;DHT22;39320;53.214;6.556;2023-02-08T03:12:36;2.80;99.90
51908;DHT22;39320;53.214;6.556;2023-02-08T03:20:09;2.90;99.90
51908;DHT22;39320;53.214;6.556;2023-02-08T03:25:22;2.80;99.90
51908;DHT22;39320;53.214;6.556;2023-02-08T03:36:25;2.80;99.90
51908;DHT22;39320;53.214;6.556;2023-02-08T03:38:54;2.70;99.90
51908;DHT22;39320;53.214;6.556;2023-02-08T03:41:28;2.80;99.90
51908;DHT22;39320;53.214;6.556;2023-02-08T03:44:19;2.70;99.90
51908;DHT22;39320;53.214;6.556;2023-02-08T03:46:51;2.70;99.90
51908;DHT22;39320;53.214;6.556;2023-02-08T03:49:26;2.80;99.90
51908;DHT22;39320;53.214;6.556;2023-02-08T03:51:55;2.70;99.90
51908;DHT22;39320;53.214;6.556;2023-02-08T03:54:24;2.70;99.90
51908;DHT22;39320;53.214;6.556;2023-02-08T03:57:01;2.70;99.90
51908;DHT22;39320;53.214;6.556;2023-02-08T03:59:35;2.80;99.90
51908;DHT22;39320;53.214;6.556;2023-02-08T04:02:03;2.40;99.90
51908;DHT22;39320;53.214;6.556;2023-02-08T04:04:33;2.80;99.90
51908;DHT22;39320;53.214;6.556;2023-02-08T04:07:00;2.80;99.90
51908;DHT22;39320;53.214;6.556;2023-02-08T04:09:26;2.80;99.90
51908;DHT22;39320;53.214;6.556;2023-02-08T04:11:52;2.80;99.90
51908;DHT22;39320;53.214;6.556;2023-02-08T04:14:17;2.80;99.90
51908;DHT22;39320;53.214;6.556;2023-02-08T04:16:43;2.80;99.90
51908;DHT22;39320;53.214;6.556;2023-02-08T04:19:09;2.80;99.90
51908;DHT22;39320;53.214;6.556;2023-02-08T04:21:34;2.70;99.90
51908;DHT22;39320;53.214;6.556;2023-02-08T04:24:00;2.70;99.90
51908;DHT22;39320;53.214;6.556;2023-02-08T04:26:26;2.70;99.90
51908;DHT22;39320;53.214;6.556;2023-02-08T04:28:52;2.60;99.90
51908;DHT22;39320;53.214;6.556;2023-02-08T04:31:17;2.60;99.90
51908;DHT22;39320;53.214;6.556;2023-02-08T04:33:43;2.60;99.90
51908;DHT22;39320;53.214;6.556;2023-02-08T04:36:09;2.60;99.90
51908;DHT22;39320;53.214;6.556;2023-02-08T04:38:35;2.60;99.90
51908;DHT22;39320;53.214;6.556;2023-02-08T04:41:01;2.60;99.90
51908;DHT22;39320;53.214;6.556;2023-02-08T04:43:27;2.60;99.90
51908;DHT22;39320;53.214;6.556;2023-02-08T04:45:52;2.60;99.90
51908;DHT22;39320;53.214;6.556;2023-02-08T04:48:19;2.60;99.90
51908;DHT22;39320;53.214;6.556;2023-02-08T04:50:45;2.50;99.90
51908;DHT22;39320;53.214;6.556;2023-02-08T04:53:10;2.60;99.90
51908;DHT22;39320;53.214;6.556;2023-02-08T04:55:36;2.60;99.90
51908;DHT22;39320;53.214;6.556;2023-02-08T04:58:02;2.80;99.90
51908;DHT22;39320;53.214;6.556;2023-02-08T05:00:28;2.70;99.90
51908;DHT22;39320;53.214;6.556;2023-02-08T05:03:19;2.70;99.90
51908;DHT22;39320;53.214;6.556;2023-02-08T05:05:58;2.60;99.90
51908;DHT22;39320;53.214;6.556;2023-02-08T05:08:24;2.60;99.90
51908;DHT22;39320;53.214;6.556;2023-02-08T05:10:49;2.60;99.90
51908;DHT22;39320;53.214;6.556;2023-02-08T05:13:15;2.60;99.90
51908;DHT22;39320;53.214;6.556;2023-02-08T05:15:41;2.60;99.90
51908;DHT22;39320;53.214;6.556;2023-02-08T05:18:07;2.60;99.90
51908;DHT22;39320;53.214;6.556;2023-02-08T05:20:32;2.60;99.90
51908;DHT22;39320;53.214;6.556;2023-02-08T05:22:58;2.60;99.90
51908;DHT22;39320;53.214;6.556;2023-02-08T05:25:24;2.80;99.90
51908;DHT22;39320;53.214;6.556;2023-02-08T05:27:50;2.90;99.90
51908;DHT22;39320;53.214;6.556;2023-02-08T05:30:16;3.70;99.90
51908;DHT22;39320;53.214;6.556;2023-02-08T05:32:42;2.60;99.90
51908;DHT22;39320;53.214;6.556;2023-02-08T05:35:07;2.60;99.90
51908;DHT22;39320;53.214;6.556;2023-02-08T05:37:33;2.60;99.90
51908;DHT22;39320;53.214;6.556;2023-02-08T05:40:02;2.50;99.90
51908;DHT22;39320;53.214;6.556;2023-02-08T05:42:28;2.60;99.90
51908;DHT22;39320;53.214;6.556;2023-02-08T05:44:54;2.60;99.90
51908;DHT22;39320;53.214;6.556;2023-02-08T05:47:19;2.70;99.90
51908;DHT22;39320;53.214;6.556;2023-02-08T05:49:45;2.50;99.90
51908;DHT22;39320;53.214;6.556;2023-02-08T05:52:11;2.50;99.90
51908;DHT22;39320;53.214;6.556;2023-02-08T05:54:36;2.50;99.90
51908;DHT22;39320;53.214;6.556;2023-02-08T05:57:02;2.50;99.90
51908;DHT22;39320;53.214;6.556;2023-02-08T05:59:28;2.50;99.90
51908;DHT22;39320;53.214;6.556;2023-02-08T06:01:54;2.50;99.90
51908;DHT22;39320;53.214;6.556;2023-02-08T06:04:20;2.50;99.90
51908;DHT22;39320;53.214;6.556;2023-02-08T06:06:45;2.50;99.90
51908;DHT22;39320;53.214;6.556;2023-02-08T06:09:11;2.60;99.90
51908;DHT22;39320;53.214;6.556;2023-02-08T06:11:37;2.40;99.90
51908;DHT22;39320;53.214;6.556;2023-02-08T06:14:03;2.40;99.90
51908;DHT22;39320;53.214;6.556;2023-02-08T06:16:29;2.90;99.90
51908;DHT22;39320;53.214;6.556;2023-02-08T06:18:55;2.50;99.90
51908;DHT22;39320;53.214;6.556;2023-02-08T06:21:20;2.60;99.90
51908;DHT22;39320;53.214;6.556;2023-02-08T06:23:46;2.50;99.90
51908;DHT22;39320;53.214;6.556;2023-02-08T06:26:12;2.50;99.90
51908;DHT22;39320;53.214;6.556;2023-02-08T06:28:38;2.50;99.90
51908;DHT22;39320;53.214;6.556;2023-02-08T06:31:03;2.70;99.90
51908;DHT22;39320;53.214;6.556;2023-02-08T06:33:29;2.40;99.90
51908;DHT22;39320;53.214;6.556;2023-02-08T06:35:55;2.40;99.90
51908;DHT22;39320;53.214;6.556;2023-02-08T06:38:21;2.40;99.90
51908;DHT22;39320;53.214;6.556;2023-02-08T06:40:47;2.40;99.90
51908;DHT22;39320;53.214;6.556;2023-02-08T06:43:14;2.40;99.90
51908;DHT22;39320;53.214;6.556;2023-02-08T06:45:40;2.30;99.90
51908;DHT22;39320;53.214;6.556;2023-02-08T06:48:07;2.40;99.90
51908;DHT22;39320;53.214;6.556;2023-02-08T06:50:33;3.30;99.90
51908;DHT22;39320;53.214;6.556;2023-02-08T06:52:58;2.40;99.90
51908;DHT22;39320;53.214;6.556;2023-02-08T06:55:24;2.40;99.90
51908;DHT22;39320;53.214;6.556;2023-02-08T06:57:52;2.40;99.90
51908;DHT22;39320;53.214;6.556;2023-02-08T07:00:18;2.40;99.90
51908;DHT22;39320;53.214;6.556;2023-02-08T07:02:44;2.40;99.90
51908;DHT22;39320;53.214;6.556;2023-02-08T07:05:12;2.40;99.90
51908;DHT22;39320;53.214;6.556;2023-02-08T07:07:38;2.40;99.90
51908;DHT22;39320;53.214;6.556;2023-02-08T07:10:07;2.40;99.90
51908;DHT22;39320;53.214;6.556;2023-02-08T07:12:35;2.40;99.90
51908;DHT22;39320;53.214;6.556;2023-02-08T07:15:02;2.40;99.90
51908;DHT22;39320;53.214;6.556;2023-02-08T07:17:27;2.30;99.90
51908;DHT22;39320;53.214;6.556;2023-02-08T07:19:53;2.30;99.90
51908;DHT22;39320;53.214;6.556;2023-02-08T07:22:19;2.40;99.90
51908;DHT22;39320;53.214;6.556;2023-02-08T07:24:45;2.30;99.90
51908;DHT22;39320;53.214;6.556;2023-02-08T07:27:11;2.50;99.90
51908;DHT22;39320;53.214;6.556;2023-02-08T07:29:38;2.30;99.90
51908;DHT22;39320;53.214;6.556;2023-02-08T07:32:05;2.30;99.90
51908;DHT22;39320;53.214;6.556;2023-02-08T07:34:33;2.30;99.90
51908;DHT22;39320;53.214;6.556;2023-02-08T07:36:59;2.30;99.90
51908;DHT22;39320;53.214;6.556;2023-02-08T07:39:25;2.30;99.90
51908;DHT22;39320;53.214;6.556;2023-02-08T07:41:50;2.30;99.90
51908;DHT22;39320;53.214;6.556;2023-02-08T07:44:16;2.20;99.90
51908;DHT22;39320;53.214;6.556;2023-02-08T07:46:42;2.20;99.90
51908;DHT22;39320;53.214;6.556;2023-02-08T07:49:07;3.30;99.90
51908;DHT22;39320;53.214;6.556;2023-02-08T07:51:33;2.20;99.90
51908;DHT22;39320;53.214;6.556;2023-02-08T07:53:59;2.20;99.90
51908;DHT22;39320;53.214;6.556;2023-02-08T07:56:25;2.20;99.90
51908;DHT22;39320;53.214;6.556;2023-02-08T07:58:50;2.20;99.90
51908;DHT22;39320;53.214;6.556;2023-02-08T08:01:16;2.20;99.90
51908;DHT22;39320;53.214;6.556;2023-02-08T08:03:42;2.20;99.90
51908;DHT22;39320;53.214;6.556;2023-02-08T08:06:07;2.20;99.90
51908;DHT22;39320;53.214;6.556;2023-02-08T08:08:33;3.00;99.90
51908;DHT22;39320;53.214;6.556;2023-02-08T08:10:59;2.20;99.90
51908;DHT22;39320;53.214;6.556;2023-02-08T08:13:25;2.30;99.90
51908;DHT22;39320;53.214;6.556;2023-02-08T08:15:50;2.30;99.90
51908;DHT22;39320;53.214;6.556;2023-02-08T08:18:16;2.70;99.90
51908;DHT22;39320;53.214;6.556;2023-02-08T08:20:42;2.30;99.90
51908;DHT22;39320;53.214;6.556;2023-02-08T08:23:08;2.30;99.90
51908;DHT22;39320;53.214;6.556;2023-02-08T08:25:34;2.40;99.90
51908;DHT22;39320;53.214;6.556;2023-02-08T08:28:01;2.40;99.90
51908;DHT22;39320;53.214;6.556;2023-02-08T08:30:27;2.40;99.90
51908;DHT22;39320;53.214;6.556;2023-02-08T08:32:53;2.40;99.90
51908;DHT22;39320;53.214;6.556;2023-02-08T08:35:19;3.00;99.90
51908;DHT22;39320;53.214;6.556;2023-02-08T08:37:45;2.40;99.90
51908;DHT22;39320;53.214;6.556;2023-02-08T08:40:11;3.30;99.90
51908;DHT22;39320;53.214;6.556;2023-02-08T08:42:37;2.90;99.90
51908;DHT22;39320;53.214;6.556;2023-02-08T08:45:05;2.60;99.90
51908;DHT22;39320;53.214;6.556;2023-02-08T08:47:31;2.50;99.90
51908;DHT22;39320;53.214;6.556;2023-02-08T08:49:57;2.50;99.90
51908;DHT22;39320;53.214;6.556;2023-02-08T08:52:23;2.50;99.90
51908;DHT22;39320;53.214;6.556;2023-02-08T08:54:49;3.20;99.90
51908;DHT22;39320;53.214;6.556;2023-02-08T08:57:15;2.60;99.90
51908;DHT22;39320;53.214;6.556;2023-02-08T08:59:41;2.60;99.90
51908;DHT22;39320;53.214;6.556;2023-02-08T09:02:08;2.70;99.90
51908;DHT22;39320;53.214;6.556;2023-02-08T09:04:34;2.70;99.90
51908;DHT22;39320;53.214;6.556;2023-02-08T09:06:59;2.80;99.90
51908;DHT22;39320;53.214;6.556;2023-02-08T09:09:25;2.80;99.90
51908;DHT22;39320;53.214;6.556;2023-02-08T09:11:51;2.90;99.90
51908;DHT22;39320;53.214;6.556;2023-02-08T09:14:17;3.30;99.90
51908;DHT22;39320;53.214;6.556;2023-02-08T09:16:43;3.20;99.90
51908;DHT22;39320;53.214;6.556;2023-02-08T09:19:13;3.00;99.90
51908;DHT22;39320;53.214;6.556;2023-02-08T09:21:38;3.10;99.90
51908;DHT22;39320;53.214;6.556;2023-02-08T09:24:05;4.10;99.90
51908;DHT22;39320;53.214;6.556;2023-02-08T09:26:31;3.10;99.90
51908;DHT22;39320;53.214;6.556;2023-02-08T09:28:57;3.80;99.90
51908;DHT22;39320;53.214;6.556;2023-02-08T09:31:26;3.20;99.90
51908;DHT22;39320;53.214;6.556;2023-02-08T09:33:54;3.20;99.90
51908;DHT22;39320;53.214;6.556;2023-02-08T09:36:22;3.30;99.90
51908;DHT22;39320;53.214;6.556;2023-02-08T09:38:49;3.20;99.90
51908;DHT22;39320;53.214;6.556;2023-02-08T09:41:22;3.70;99.90
51908;DHT22;39320;53.214;6.556;2023-02-08T09:47:02;3.30;99.90
51908;DHT22;39320;53.214;6.556;2023-02-08T09:52:17;3.40;99.90
51908;DHT22;39320;53.214;6.556;2023-02-08T09:54:51;3.40;99.90
51908;DHT22;39320;53.214;6.556;2023-02-08T09:57:23;3.40;99.90
51908;DHT22;39320;53.214;6.556;2023-02-08T10:00:00;3.40;99.90
51908;DHT22;39320;53.214;6.556;2023-02-08T10:02:31;3.50;99.90
51908;DHT22;39320;53.214;6.556;2023-02-08T10:05:06;3.50;99.90
51908;DHT22;39320;53.214;6.556;2023-02-08T10:07:33;3.50;99.90
51908;DHT22;39320;53.214;6.556;2023-02-08T10:10:03;3.60;99.90
51908;DHT22;39320;53.214;6.556;2023-02-08T10:12:37;3.60;99.90
51908;DHT22;39320;53.214;6.556;2023-02-08T10:34:01;3.90;99.90
51908;DHT22;39320;53.214;6.556;2023-02-08T10:36:38;4.00;99.90
51908;DHT22;39320;53.214;6.556;2023-02-08T10:39:16;4.00;99.90
51908;DHT22;39320;53.214;6.556;2023-02-08T10:41:44;4.10;99.90
51908;DHT22;39320;53.214;6.556;2023-02-08T10:44:38;4.10;99.90
51908;DHT22;39320;53.214;6.556;2023-02-08T10:52:17;4.20;99.90
51908;DHT22;39320;53.214;6.556;2023-02-08T10:54:43;4.20;99.90
51908;DHT22;39320;53.214;6.556;2023-02-08T10:57:24;4.30;99.90
51908;DHT22;39320;53.214;6.556;2023-02-08T10:59:55;4.30;99.90
51908;DHT22;39320;53.214;6.556;2023-02-08T11:02:25;4.30;99.90
51908;DHT22;39320;53.214;6.556;2023-02-08T11:05:05;4.40;99.90
51908;DHT22;39320;53.214;6.556;2023-02-08T11:07:31;4.40;99.90
51908;DHT22;39320;53.214;6.556;2023-02-08T11:15:42;4.60;99.90
51908;DHT22;39320;53.214;6.556;2023-02-08T11:18:18;4.70;99.90
51908;DHT22;39320;53.214;6.556;2023-02-08T11:20:47;4.70;99.90
51908;DHT22;39320;53.214;6.556;2023-02-08T11:23:24;4.80;99.90
51908;DHT22;39320;53.214;6.556;2023-02-08T11:25:52;4.90;99.90
51908;DHT22;39320;53.214;6.556;2023-02-08T11:28:29;4.90;99.90
51908;DHT22;39320;53.214;6.556;2023-02-08T11:31:14;5.00;99.90
51908;DHT22;39320;53.214;6.556;2023-02-08T11:34:03;5.20;99.90
51908;DHT22;39320;53.214;6.556;2023-02-08T11:36:30;5.30;99.90
51908;DHT22;39320;53.214;6.556;2023-02-08T11:38:56;5.30;99.90
51908;DHT22;39320;53.214;6.556;2023-02-08T11:41:25;5.40;99.90
51908;DHT22;39320;53.214;6.556;2023-02-08T11:43:58;5.50;99.90
51908;DHT22;39320;53.214;6.556;2023-02-08T11:46:26;5.60;99.90
51908;DHT22;39320;53.214;6.556;2023-02-08T11:48:53;5.70;99.90
51908;DHT22;39320;53.214;6.556;2023-02-08T11:51:31;5.80;99.80
51908;DHT22;39320;53.214;6.556;2023-02-08T11:53:59;6.00;99.00
51908;DHT22;39320;53.214;6.556;2023-02-08T11:56:31;6.10;98.70
51908;DHT22;39320;53.214;6.556;2023-02-08T11:59:18;6.20;97.40
51908;DHT22;39320;53.214;6.556;2023-02-08T12:01:45;6.30;93.70
51908;DHT22;39320;53.214;6.556;2023-02-08T12:04:16;6.30;95.40
51908;DHT22;39320;53.214;6.556;2023-02-08T12:09:42;6.50;92.70
51908;DHT22;39320;53.214;6.556;2023-02-08T12:15:45;6.70;86.30
51908;DHT22;39320;53.214;6.556;2023-02-08T12:20:44;6.80;86.90
51908;DHT22;39320;53.214;6.556;2023-02-08T12:25:54;6.90;80.70
51908;DHT22;39320;53.214;6.556;2023-02-08T12:28:41;7.00;78.90
51908;DHT22;39320;53.214;6.556;2023-02-08T12:31:11;7.00;75.90
51908;DHT22;39320;53.214;6.556;2023-02-08T12:34:00;7.10;77.70
51908;DHT22;39320;53.214;6.556;2023-02-08T12:48:03;7.50;69.20
51908;DHT22;39320;53.214;6.556;2023-02-08T12:55:51;7.40;65.80
51908;DHT22;39320;53.214;6.556;2023-02-08T12:58:28;7.50;68.50
51908;DHT22;39320;53.214;6.556;2023-02-08T13:01:00;7.60;67.30
51908;DHT22;39320;53.214;6.556;2023-02-08T13:03:47;7.70;67.70
51908;DHT22;39320;53.214;6.556;2023-02-08T13:06:20;7.80;65.80
51908;DHT22;39320;53.214;6.556;2023-02-08T13:14:04;8.00;65.60
51908;DHT22;39320;53.214;6.556;2023-02-08T13:16:36;8.10;64.60
51908;DHT22;39320;53.214;6.556;2023-02-08T13:19:22;8.20;65.20
51908;DHT22;39320;53.214;6.556;2023-02-08T13:21:48;8.30;65.20
51908;DHT22;39320;53.214;6.556;2023-02-08T13:24:35;8.40;66.00
51908;DHT22;39320;53.214;6.556;2023-02-08T13:27:02;8.50;63.90
51908;DHT22;39320;53.214;6.556;2023-02-08T13:29:31;8.50;64.80
51908;DHT22;39320;53.214;6.556;2023-02-08T13:32:24;8.60;64.80
51908;DHT22;39320;53.214;6.556;2023-02-08T13:35:01;8.60;63.30
51908;DHT22;39320;53.214;6.556;2023-02-08T13:37:31;8.60;63.80
51908;DHT22;39320;53.214;6.556;2023-02-08T13:42:40;8.70;63.30
51908;DHT22;39320;53.214;6.556;2023-02-08T13:45:09;8.80;63.20
51908;DHT22;39320;53.214;6.556;2023-02-08T13:47:47;8.80;63.30
51908;DHT22;39320;53.214;6.556;2023-02-08T13:52:52;9.10;61.70
51908;DHT22;39320;53.214;6.556;2023-02-08T14:00:27;9.20;61.50
51908;DHT22;39320;53.214;6.556;2023-02-08T14:05:50;9.20;59.20
51908;DHT22;39320;53.214;6.556;2023-02-08T14:08:43;9.30;60.80
51908;DHT22;39320;53.214;6.556;2023-02-08T14:13:59;9.40;59.70
51908;DHT22;39320;53.214;6.556;2023-02-08T14:16:34;9.40;60.10
51908;DHT22;39320;53.214;6.556;2023-02-08T14:19:05;9.50;59.70
51908;DHT22;39320;53.214;6.556;2023-02-08T14:21:47;9.40;59.70
51908;DHT22;39320;53.214;6.556;2023-02-08T14:24:23;9.40;59.70
51908;DHT22;39320;53.214;6.556;2023-02-08T14:27:05;9.30;58.20
51908;DHT22;39320;53.214;6.556;2023-02-08T14:29:32;9.30;58.10
51908;DHT22;39320;53.214;6.556;2023-02-08T14:31:58;9.30;59.90
51908;DHT22;39320;53.214;6.556;2023-02-08T14:34:39;9.20;60.40
51908;DHT22;39320;53.214;6.556;2023-02-08T14:39:43;9.20;57.40
51908;DHT22;39320;53.214;6.556;2023-02-08T14:42:10;9.20;59.10
51908;DHT22;39320;53.214;6.556;2023-02-08T14:47:11;9.20;57.70
51908;DHT22;39320;53.214;6.556;2023-02-08T14:49:40;9.10;57.50
51908;DHT22;39320;53.214;6.556;2023-02-08T14:52:13;9.00;57.10
51908;DHT22;39320;53.214;6.556;2023-02-08T14:54:49;9.00;57.00
51908;DHT22;39320;53.214;6.556;2023-02-08T14:57:29;9.00;56.40
51908;DHT22;39320;53.214;6.556;2023-02-08T15:00:02;9.00;56.40
51908;DHT22;39320;53.214;6.556;2023-02-08T15:02:30;9.00;56.50
51908;DHT22;39320;53.214;6.556;2023-02-08T15:04:58;9.00;57.40
51908;DHT22;39320;53.214;6.556;2023-02-08T15:07:41;9.00;58.10
51908;DHT22;39320;53.214;6.556;2023-02-08T15:10:12;9.00;58.30
51908;DHT22;39320;53.214;6.556;2023-02-08T15:12:40;9.00;58.60
51908;DHT22;39320;53.214;6.556;2023-02-08T15:15:27;8.90;58.20
51908;DHT22;39320;53.214;6.556;2023-02-08T15:17:54;9.00;56.40
51908;DHT22;39320;53.214;6.556;2023-02-08T15:20:26;9.00;58.00
51908;DHT22;39320;53.214;6.556;2023-02-08T15:23:17;9.00;57.90
51908;DHT22;39320;53.214;6.556;2023-02-08T15:25:43;9.00;57.70
51908;DHT22;39320;53.214;6.556;2023-02-08T15:28:20;9.00;58.70
51908;DHT22;39320;53.214;6.556;2023-02-08T15:31:12;9.00;59.00
51908;DHT22;39320;53.214;6.556;2023-02-08T15:33:40;9.10;57.80
51908;DHT22;39320;53.214;6.556;2023-02-08T15:36:36;9.30;59.10
51908;DHT22;39320;53.214;6.556;2023-02-08T15:41:57;10.30;57.90
51908;DHT22;39320;53.214;6.556;2023-02-08T15:44:28;10.50;57.20
51908;DHT22;39320;53.214;6.556;2023-02-08T15:47:03;10.40;56.50
51908;DHT22;39320;53.214;6.556;2023-02-08T15:49:35;10.10;56.90
51908;DHT22;39320;53.214;6.556;2023-02-08T15:52:03;9.80;57.00
51908;DHT22;39320;53.214;6.556;2023-02-08T15:54:29;9.50;57.60
51908;DHT22;39320;53.214;6.556;2023-02-08T15:57:25;9.30;58.00
51908;DHT22;39320;53.214;6.556;2023-02-08T15:59:53;9.00;56.90
51908;DHT22;39320;53.214;6.556;2023-02-08T16:04:49;8.60;59.10
51908;DHT22;39320;53.214;6.556;2023-02-08T16:07:39;8.50;59.60
51908;DHT22;39320;53.214;6.556;2023-02-08T16:13:01;8.20;59.50
51908;DHT22;39320;53.214;6.556;2023-02-08T16:15:39;8.00;60.30
51908;DHT22;39320;53.214;6.556;2023-02-08T16:21:03;7.80;60.90
51908;DHT22;39320;53.214;6.556;2023-02-08T16:23:33;7.80;61.80
51908;DHT22;39320;53.214;6.556;2023-02-08T16:26:29;7.70;62.40
51908;DHT22;39320;53.214;6.556;2023-02-08T16:29:05;7.60;62.60
51908;DHT22;39320;53.214;6.556;2023-02-08T16:31:33;7.60;63.40
51908;DHT22;39320;53.214;6.556;2023-02-08T16:34:04;7.50;63.70
51908;DHT22;39320;53.214;6.556;2023-02-08T16:36:36;7.50;64.10
51908;DHT22;39320;53.214;6.556;2023-02-08T16:39:34;7.50;64.40
51908;DHT22;39320;53.214;6.556;2023-02-08T16:42:06;7.40;64.30
51908;DHT22;39320;53.214;6.556;2023-02-08T16:44:34;7.30;65.20
51908;DHT22;39320;53.214;6.556;2023-02-08T16:47:02;7.10;65.70
51908;DHT22;39320;53.214;6.556;2023-02-08T16:49:48;7.30;66.00
51908;DHT22;39320;53.214;6.556;2023-02-08T16:52:14;7.30;66.20
51908;DHT22;39320;53.214;6.556;2023-02-08T16:54:40;7.20;66.50
51908;DHT22;39320;53.214;6.556;2023-02-08T16:57:06;7.10;66.60
51908;DHT22;39320;53.214;6.556;2023-02-08T16:59:33;7.00;66.80
51908;DHT22;39320;53.214;6.556;2023-02-08T17:01:58;7.00;66.90
51908;DHT22;39320;53.214;6.556;2023-02-08T17:04:24;7.00;67.20
51908;DHT22;39320;53.214;6.556;2023-02-08T17:06:50;6.90;67.80
51908;DHT22;39320;53.214;6.556;2023-02-08T17:09:16;6.90;67.90
51908;DHT22;39320;53.214;6.556;2023-02-08T17:11:45;6.90;68.10
51908;DHT22;39320;53.214;6.556;2023-02-08T17:14:11;6.90;68.60
51908;DHT22;39320;53.214;6.556;2023-02-08T17:16:37;6.90;68.90
51908;DHT22;39320;53.214;6.556;2023-02-08T17:19:04;6.80;69.40
51908;DHT22;39320;53.214;6.556;2023-02-08T17:21:30;6.90;69.50
51908;DHT22;39320;53.214;6.556;2023-02-08T17:23:56;7.10;70.00
51908;DHT22;39320;53.214;6.556;2023-02-08T17:26:34;6.80;69.90
51908;DHT22;39320;53.214;6.556;2023-02-08T17:29:01;6.80;69.90
51908;DHT22;39320;53.214;6.556;2023-02-08T17:31:28;6.70;70.30
51908;DHT22;39320;53.214;6.556;2023-02-08T17:33:54;6.70;70.70
51908;DHT22;39320;53.214;6.556;2023-02-08T17:36:22;7.30;72.00
51908;DHT22;39320;53.214;6.556;2023-02-08T17:38:48;6.70;70.80
51908;DHT22;39320;53.214;6.556;2023-02-08T17:41:19;6.70;71.20
51908;DHT22;39320;53.214;6.556;2023-02-08T17:43:48;6.70;71.10
51908;DHT22;39320;53.214;6.556;2023-02-08T17:46:17;6.70;71.20
51908;DHT22;39320;53.214;6.556;2023-02-08T17:48:43;6.60;71.20
51908;DHT22;39320;53.214;6.556;2023-02-08T17:51:12;6.60;71.40
51908;DHT22;39320;53.214;6.556;2023-02-08T17:53:42;6.60;71.90
51908;DHT22;39320;53.214;6.556;2023-02-08T17:56:19;6.60;72.00
51908;DHT22;39320;53.214;6.556;2023-02-08T17:58:46;6.50;71.90
51908;DHT22;39320;53.214;6.556;2023-02-08T18:01:21;6.50;71.80
51908;DHT22;39320;53.214;6.556;2023-02-08T18:03:48;6.50;71.70
51908;DHT22;39320;53.214;6.556;2023-02-08T18:06:18;6.40;71.70
51908;DHT22;39320;53.214;6.556;2023-02-08T18:08:45;6.40;72.20
51908;DHT22;39320;53.214;6.556;2023-02-08T18:11:14;6.40;72.30
51908;DHT22;39320;53.214;6.556;2023-02-08T18:13:45;6.30;72.10
51908;DHT22;39320;53.214;6.556;2023-02-08T18:16:17;6.40;72.30
51908;DHT22;39320;53.214;6.556;2023-02-08T18:18:43;6.40;72.60
51908;DHT22;39320;53.214;6.556;2023-02-08T18:21:11;6.30;72.30
51908;DHT22;39320;53.214;6.556;2023-02-08T18:23:38;6.40;72.30
51908;DHT22;39320;53.214;6.556;2023-02-08T18:26:05;6.40;72.60
51908;DHT22;39320;53.214;6.556;2023-02-08T18:28:32;6.30;72.50